createdAt,value
2022-08-10T00:01:52.893Z,100.00
2022-08-10T00:04:24.307Z,100.00
2022-08-10T00:06:55.414Z,100.00
2022-08-10T00:09:23.652Z,100.00
2022-08-10T00:11:50.915Z,100.00
2022-08-10T00:14:18.353Z,100.00
2022-08-10T00:16:45.343Z,100.00
2022-08-10T00:19:12.179Z,100.00
2022-08-10T00:21:39.224Z,100.00
2022-08-10T00:24:06.177Z,100.00
2022-08-10T00:27:52.278Z,100.00
2022-08-10T00:29:21.059Z,100.00
2022-08-10T00:31:58.037Z,100.00
2022-08-10T00:34:25.650Z,100.00
2022-08-10T00:36:52.340Z,100.00
2022-08-10T00:39:19.042Z,100.00
2022-08-10T00:41:45.926Z,100.00
2022-08-10T00:44:32.633Z,100.00
2022-08-10T00:47:00.967Z,100.00
2022-08-10T00:49:28.750Z,100.00
2022-08-10T00:51:56.084Z,100.00
2022-08-10T00:54:24.120Z,100.00
2022-08-10T00:57:17.110Z,100.00
2022-08-10T00:59:58.504Z,100.00
2022-08-10T01:02:25.572Z,100.00
2022-08-10T01:04:59.981Z,100.00
2022-08-10T01:08:05.138Z,100.00
2022-08-10T01:10:52.757Z,100.00
2022-08-10T01:13:33.632Z,100.00
2022-08-10T01:16:25.831Z,100.00
2022-08-10T01:19:03.795Z,100.00
2022-08-10T01:22:01.641Z,100.00
2022-08-10T01:25:03.607Z,100.00
2022-08-10T01:27:45.849Z,100.00
2022-08-10T01:30:14.787Z,100.00
2022-08-10T01:33:10.789Z,100.00
2022-08-10T01:35:47.042Z,100.00
2022-08-10T01:38:19.237Z,100.00
2022-08-10T01:40:52.163Z,100.00
2022-08-10T01:43:20.448Z,100.00
2022-08-10T01:45:53.708Z,100.00
2022-08-10T01:48:30.874Z,100.00
2022-08-10T01:51:21.872Z,100.00
2022-08-10T01:53:57.683Z,100.00
2022-08-10T01:56:26.662Z,100.00
2022-08-10T01:58:58.507Z,100.00
2022-08-10T02:01:29.650Z,100.00
2022-08-10T02:04:05.203Z,100.00
2022-08-10T02:06:45.579Z,100.00
2022-08-10T02:09:17.522Z,100.00
2022-08-10T02:12:05.133Z,100.00
2022-08-10T02:14:34.939Z,100.00
2022-08-10T02:17:05.607Z,100.00
2022-08-10T02:19:35.708Z,100.00
2022-08-10T02:22:36.972Z,100.00
2022-08-10T02:24:52.499Z,100.00
2022-08-10T02:27:22.755Z,100.00
2022-08-10T02:29:51.910Z,100.00
2022-08-10T02:32:36.251Z,100.00
2022-08-10T02:35:17.786Z,100.00
2022-08-10T02:37:51.475Z,100.00
2022-08-10T02:45:11.044Z,100.00
2022-08-10T02:45:22.576Z,100.00
2022-08-10T02:46:08.526Z,100.00
2022-08-10T02:48:44.628Z,100.00
2022-08-10T02:52:06.523Z,100.00
2022-08-10T02:54:37.202Z,100.00
2022-08-10T02:57:13.818Z,100.00
2022-08-10T02:59:45.769Z,100.00
2022-08-10T03:02:16.559Z,100.00
2022-08-10T03:04:55.830Z,100.00
2022-08-10T03:07:44.341Z,100.00
2022-08-10T03:10:17.519Z,100.00
2022-08-10T03:12:49.539Z,100.00
2022-08-10T03:15:19.075Z,100.00
2022-08-10T03:17:57.665Z,100.00
2022-08-10T03:20:36.464Z,100.00
2022-08-10T03:23:11.490Z,100.00
2022-08-10T03:25:39.253Z,100.00
2022-08-10T03:28:07.160Z,100.00
2022-08-10T03:30:35.192Z,100.00
2022-08-10T03:33:07.713Z,100.00
2022-08-10T03:35:34.979Z,100.00
2022-08-10T03:38:02.331Z,100.00
2022-08-10T03:40:45.132Z,100.00
2022-08-10T03:43:23.838Z,100.00
2022-08-10T03:45:56.466Z,100.00
2022-08-10T03:48:44.820Z,100.00
2022-08-10T03:51:13.635Z,100.00
2022-08-10T03:54:05.459Z,100.00
2022-08-10T03:56:31.993Z,100.00
2022-08-10T03:59:00.159Z,100.00
2022-08-10T04:02:46.665Z,100.00
2022-08-10T04:04:17.819Z,100.00
2022-08-10T04:06:51.420Z,100.00
2022-08-10T04:09:22.633Z,100.00
2022-08-10T04:11:49.316Z,100.00
2022-08-10T04:14:44.977Z,100.00
2022-08-10T04:17:02.806Z,100.00
2022-08-10T04:19:34.422Z,100.00
2022-08-10T04:22:08.940Z,100.00
2022-08-10T04:24:38.174Z,100.00
2022-08-10T04:27:05.439Z,100.00
2022-08-10T04:29:32.834Z,100.00
2022-08-10T04:32:01.548Z,100.00
2022-08-10T04:34:31.961Z,100.00
2022-08-10T04:37:08.817Z,100.00
2022-08-10T04:39:36.296Z,100.00
2022-08-10T04:42:03.741Z,100.00
2022-08-10T04:44:30.603Z,100.00
2022-08-10T04:46:58.472Z,100.00
2022-08-10T04:49:55.550Z,100.00
2022-08-10T04:52:13.420Z,100.00
2022-08-10T04:54:40.180Z,100.00
2022-08-10T04:57:09.225Z,100.00
2022-08-10T04:59:36.276Z,100.00
2022-08-10T05:02:30.357Z,100.00
2022-08-10T05:04:49.968Z,100.00
2022-08-10T05:07:18.487Z,100.00
2022-08-10T05:10:03.788Z,100.00
2022-08-10T05:12:38.676Z,100.00
2022-08-10T05:15:07.679Z,100.00
2022-08-10T05:17:35.834Z,100.00
2022-08-10T05:20:06.873Z,100.00
2022-08-10T05:22:46.342Z,100.00
2022-08-10T05:25:18.274Z,100.00
2022-08-10T05:27:46.458Z,100.00
2022-08-10T05:30:19.733Z,100.00
2022-08-10T05:32:55.422Z,100.00
2022-08-10T05:35:27.484Z,100.00
2022-08-10T05:38:09.034Z,100.00
2022-08-10T05:40:46.260Z,100.00
2022-08-10T05:43:15.002Z,100.00
2022-08-10T05:46:19.851Z,100.00
2022-08-10T05:48:57.401Z,100.00
2022-08-10T05:51:20.432Z,100.00
2022-08-10T05:54:01.984Z,100.00
2022-08-10T05:56:54.727Z,100.00
2022-08-10T06:00:34.428Z,100.00
2022-08-10T06:02:31.817Z,100.00
2022-08-10T06:04:57.301Z,100.00
2022-08-10T06:07:27.505Z,100.00
2022-08-10T06:09:59.661Z,100.00
2022-08-10T06:12:30.973Z,100.00
2022-08-10T06:15:05.205Z,100.00
2022-08-10T06:17:33.321Z,100.00
2022-08-10T06:20:01.607Z,100.00
2022-08-10T06:22:32.533Z,100.00
2022-08-10T06:25:37.757Z,100.00
2022-08-10T06:27:49.694Z,100.00
2022-08-10T06:30:19.888Z,100.00
2022-08-10T06:32:51.551Z,100.00
2022-08-10T06:35:23.248Z,97.29
2022-08-10T06:37:54.525Z,97.45
2022-08-10T06:40:22.744Z,87.89
2022-08-10T06:42:53.805Z,90.13
2022-08-10T06:45:23.433Z,91.00
2022-08-10T06:48:02.923Z,89.08
2022-08-10T06:50:56.163Z,77.41
2022-08-10T06:53:52.111Z,78.40
2022-08-10T06:56:37.868Z,77.52
2022-08-10T06:59:26.138Z,79.15
2022-08-10T07:02:05.520Z,75.34
2022-08-10T07:04:51.592Z,86.82
2022-08-10T07:07:20.763Z,79.92
2022-08-10T07:09:49.419Z,80.88
2022-08-10T07:12:17.448Z,81.24
2022-08-10T07:14:46.418Z,81.99
2022-08-10T07:17:18.841Z,84.25
2022-08-10T07:19:57.874Z,83.24
2022-08-10T07:23:27.373Z,82.21
2022-08-10T07:25:21.300Z,78.45
2022-08-10T07:27:59.145Z,85.10
2022-08-10T07:30:36.899Z,93.98
2022-08-10T07:33:05.768Z,87.64
2022-08-10T07:35:42.548Z,80.90
2022-08-10T07:38:22.065Z,77.69
2022-08-10T07:40:51.860Z,75.83
2022-08-10T07:43:22.133Z,77.22
2022-08-10T07:45:53.993Z,76.88
2022-08-10T07:48:29.624Z,77.30
2022-08-10T07:51:00.299Z,73.44
2022-08-10T07:53:38.634Z,72.11
2022-08-10T07:56:20.840Z,69.66
2022-08-10T07:59:06.172Z,71.16
2022-08-10T08:01:35.759Z,70.41
2022-08-10T08:04:05.916Z,69.51
2022-08-10T08:06:40.338Z,70.61
2022-08-10T08:09:07.463Z,70.91
2022-08-10T08:11:36.714Z,69.51
2022-08-10T08:14:08.385Z,67.00
2022-08-10T08:16:40.682Z,71.58
2022-08-10T08:24:04.651Z,67.02
2022-08-10T08:24:47.012Z,68.90
2022-08-10T08:27:16.990Z,70.49
2022-08-10T08:29:47.147Z,66.58
2022-08-10T08:32:18.383Z,63.24
2022-08-10T08:34:47.636Z,65.44
2022-08-10T08:37:18.842Z,63.45
2022-08-10T08:40:12.196Z,61.31
2022-08-10T08:42:57.194Z,61.50
2022-08-10T08:45:35.851Z,61.70
2022-08-10T08:48:11.599Z,60.43
2022-08-10T08:50:57.691Z,60.34
2022-08-10T08:54:01.866Z,56.67
2022-08-10T08:57:08.422Z,55.56
2022-08-10T09:00:13.568Z,55.25
2022-08-10T09:03:07.779Z,55.32
2022-08-10T09:06:02.548Z,56.63
2022-08-10T09:09:11.768Z,54.95
2022-08-10T09:11:59.973Z,54.43
2022-08-10T09:14:38.746Z,54.52
2022-08-10T09:17:25.338Z,53.45
2022-08-10T09:20:16.220Z,53.27
2022-08-10T09:23:08.240Z,51.81
2022-08-10T09:25:38.169Z,51.55
2022-08-10T09:28:08.098Z,51.12
2022-08-10T09:30:52.380Z,52.41
2022-08-10T09:36:23.508Z,51.24
2022-08-10T09:36:56.379Z,51.01
2022-08-10T09:40:58.321Z,51.03
2022-08-10T09:42:21.199Z,49.82
2022-08-10T09:44:58.863Z,49.51
2022-08-10T09:48:00.745Z,48.99
2022-08-10T09:54:07.730Z,49.71
2022-08-10T10:00:13.009Z,48.39
2022-08-10T10:03:13.551Z,48.46
2022-08-10T10:06:12.578Z,48.65
2022-08-10T10:09:36.593Z,50.44
2022-08-10T10:12:16.776Z,53.21
2022-08-10T10:15:25.079Z,54.29
2022-08-10T10:18:07.677Z,54.01
2022-08-10T10:20:56.208Z,55.16
2022-08-10T10:23:40.878Z,55.81
2022-08-10T10:26:22.709Z,54.60
2022-08-10T10:29:30.894Z,52.14
2022-08-10T10:32:13.226Z,55.78
2022-08-10T10:35:09.486Z,53.87
2022-08-10T10:38:01.887Z,53.63
2022-08-10T10:40:27.346Z,53.23
2022-08-10T10:43:31.452Z,52.81
2022-08-10T10:46:33.712Z,52.94
2022-08-10T10:49:22.270Z,54.02
2022-08-10T10:52:04.988Z,53.28
2022-08-10T10:54:41.092Z,53.27
2022-08-10T10:57:58.199Z,51.55
2022-08-10T11:00:13.445Z,53.03
2022-08-10T11:03:30.902Z,51.61
2022-08-10T11:06:39.817Z,52.12
2022-08-10T11:10:04.569Z,51.27
2022-08-10T11:12:19.630Z,52.29
2022-08-10T11:15:05.194Z,53.23
2022-08-10T11:17:48.976Z,53.80
2022-08-10T11:20:22.540Z,51.58
2022-08-10T11:23:40.367Z,51.36
2022-08-10T11:26:14.021Z,51.87
2022-08-10T11:28:47.056Z,52.13
2022-08-10T11:31:25.471Z,52.56
2022-08-10T11:34:47.361Z,52.49
2022-08-10T11:36:57.148Z,51.24
2022-08-10T11:39:49.694Z,50.61
2022-08-10T11:42:36.493Z,50.35
2022-08-10T11:45:14.941Z,50.07
2022-08-10T11:47:41.528Z,49.17
2022-08-10T11:50:11.205Z,50.12
2022-08-10T11:52:55.422Z,50.16
2022-08-10T11:55:32.934Z,49.96
2022-08-10T11:58:45.108Z,50.90
2022-08-10T12:01:15.750Z,50.04
2022-08-10T12:03:44.829Z,48.52
2022-08-10T12:06:17.249Z,48.54
2022-08-10T12:10:05.135Z,47.07
2022-08-10T12:11:40.642Z,47.53
2022-08-10T12:14:22.285Z,45.63
2022-08-10T12:16:55.562Z,46.62
2022-08-10T12:19:31.336Z,46.42
2022-08-10T12:22:23.263Z,46.53
2022-08-10T12:24:57.078Z,46.83
2022-08-10T12:27:52.539Z,45.77
2022-08-10T12:30:26.670Z,46.62
2022-08-10T12:33:07.982Z,45.37
2022-08-10T12:35:37.787Z,45.75
2022-08-10T12:38:15.692Z,44.17
2022-08-10T12:40:50.146Z,44.95
2022-08-10T12:44:04.324Z,44.85
2022-08-10T12:46:20.005Z,48.50
2022-08-10T12:49:17.747Z,49.50
2022-08-10T12:51:58.660Z,48.73
2022-08-10T12:54:32.306Z,49.11
2022-08-10T12:57:10.286Z,51.07
2022-08-10T12:59:50.097Z,50.63
2022-08-10T13:02:24.446Z,50.56
2022-08-10T13:04:53.585Z,49.57
2022-08-10T13:08:25.964Z,49.53
2022-08-10T13:10:18.267Z,49.31
2022-08-10T13:12:48.969Z,49.05
2022-08-10T13:15:49.839Z,48.56
2022-08-10T13:18:25.361Z,49.16
2022-08-10T13:20:54.967Z,50.18
2022-08-10T13:23:27.041Z,49.52
2022-08-10T13:25:56.944Z,48.63
2022-08-10T13:28:39.898Z,49.48
2022-08-10T13:31:11.363Z,47.96
2022-08-10T13:34:39.954Z,47.96
2022-08-10T13:36:38.613Z,50.45
2022-08-10T13:39:08.546Z,50.94
2022-08-10T13:41:41.134Z,49.96
2022-08-10T13:44:17.516Z,52.37
2022-08-10T13:46:51.751Z,52.57
2022-08-10T13:49:21.001Z,46.60
2022-08-10T13:51:54.093Z,40.64
2022-08-10T13:54:27.779Z,40.32
2022-08-10T13:56:58.148Z,38.49
2022-08-10T14:00:34.359Z,38.57
2022-08-10T14:02:25.182Z,36.48
2022-08-10T14:04:54.571Z,35.44
2022-08-10T14:07:24.063Z,34.66
2022-08-10T14:09:53.282Z,35.70
2022-08-10T14:12:32.191Z,35.31
2022-08-10T14:15:03.651Z,34.37
2022-08-10T14:17:32.406Z,34.41
2022-08-10T14:20:02.433Z,34.38
2022-08-10T14:22:33.930Z,33.38
2022-08-10T14:25:09.965Z,33.76
2022-08-10T14:28:03.072Z,32.87
2022-08-10T14:30:31.380Z,33.13
2022-08-10T14:33:04.264Z,33.69
2022-08-10T14:36:19.562Z,34.06
2022-08-10T14:38:31.817Z,33.44
2022-08-10T14:41:02.075Z,33.01
2022-08-10T14:43:35.418Z,33.05
2022-08-10T14:46:11.518Z,33.00
2022-08-10T14:48:47.623Z,33.01
2022-08-10T14:51:18.062Z,32.89
2022-08-10T14:53:54.161Z,33.62
2022-08-10T14:56:33.288Z,34.31
2022-08-10T14:59:07.619Z,33.78
2022-08-10T15:02:00.372Z,34.41
2022-08-10T15:04:28.546Z,34.12
2022-08-10T15:07:01.146Z,34.13
2022-08-10T15:09:59.510Z,33.80
2022-08-10T15:12:27.189Z,33.80
2022-08-10T15:14:58.134Z,34.28
2022-08-10T15:17:36.885Z,33.64
2022-08-10T15:20:20.236Z,34.31
2022-08-10T15:22:56.743Z,34.76
2022-08-10T15:25:26.349Z,34.08
2022-08-10T15:28:05.228Z,33.38
2022-08-10T15:30:43.057Z,33.13
2022-08-10T15:33:57.475Z,33.29
2022-08-10T15:37:01.997Z,33.60
2022-08-10T15:40:24.575Z,33.38
2022-08-10T15:43:20.869Z,33.32
2022-08-10T15:45:59.279Z,33.17
2022-08-10T15:48:30.592Z,32.47
2022-08-10T15:51:05.762Z,32.74
2022-08-10T15:53:48.971Z,33.96
2022-08-10T15:56:34.534Z,35.93
2022-08-10T15:59:19.603Z,37.80
2022-08-10T16:02:14.811Z,35.80
2022-08-10T16:04:57.948Z,44.32
2022-08-10T16:07:45.295Z,44.60
2022-08-10T16:10:26.382Z,42.61
2022-08-10T16:13:01.513Z,37.61
2022-08-10T16:15:31.307Z,35.08
2022-08-10T16:18:04.477Z,38.11
2022-08-10T16:20:48.031Z,41.57
2022-08-10T16:23:35.788Z,42.33
2022-08-10T16:26:15.227Z,37.68
2022-08-10T16:28:49.509Z,37.26
2022-08-10T16:31:25.674Z,39.69
2022-08-10T16:33:55.492Z,41.21
2022-08-10T16:36:32.134Z,40.22
2022-08-10T16:38:59.762Z,42.73
2022-08-10T16:42:03.306Z,47.84
2022-08-10T16:44:19.911Z,52.80
2022-08-10T16:46:48.130Z,54.91
2022-08-10T16:49:18.079Z,60.46
2022-08-10T16:51:49.713Z,61.44
2022-08-10T16:54:26.200Z,61.47
2022-08-10T16:56:59.370Z,64.61
2022-08-10T16:59:30.943Z,68.00
2022-08-10T17:02:00.508Z,70.75
2022-08-10T17:04:29.157Z,74.06
2022-08-10T17:07:02.996Z,77.92
2022-08-10T17:09:33.175Z,78.78
2022-08-10T17:12:06.141Z,80.19
2022-08-10T17:14:32.890Z,86.46
2022-08-10T17:17:05.599Z,85.80
2022-08-10T17:19:39.886Z,86.14
2022-08-10T17:22:26.775Z,83.15
2022-08-10T17:25:00.397Z,80.59
2022-08-10T17:28:32.708Z,81.62
2022-08-10T17:30:34.089Z,78.54
2022-08-10T17:33:16.771Z,76.40
2022-08-10T17:35:48.727Z,73.53
2022-08-10T17:38:21.200Z,72.37
2022-08-10T17:40:57.845Z,74.02
2022-08-10T17:44:00.696Z,71.94
2022-08-10T17:46:14.710Z,73.11
2022-08-10T17:48:43.375Z,71.14
2022-08-10T17:51:14.055Z,72.38
2022-08-10T17:53:48.451Z,67.41
2022-08-10T17:56:23.744Z,67.20
2022-08-10T17:58:55.085Z,67.66
2022-08-10T18:01:40.764Z,67.04
2022-08-10T18:04:19.413Z,67.44
2022-08-10T18:06:56.681Z,65.12
2022-08-10T18:09:34.605Z,64.94
2022-08-10T18:12:10.156Z,64.22
2022-08-10T18:14:38.775Z,67.31
2022-08-10T18:17:15.175Z,67.32
2022-08-10T18:19:46.246Z,68.93
2022-08-10T18:22:14.185Z,69.34
2022-08-10T18:24:42.684Z,71.34
2022-08-10T18:27:12.401Z,70.16
2022-08-10T18:29:42.589Z,68.75
2022-08-10T18:32:11.374Z,68.18
2022-08-10T18:34:41.152Z,70.30
2022-08-10T18:37:19.847Z,68.70
2022-08-10T18:39:49.126Z,66.23
2022-08-10T18:42:21.547Z,63.50
2022-08-10T18:45:04.978Z,61.19
2022-08-10T18:47:35.289Z,61.07
2022-08-10T18:50:12.480Z,59.56
2022-08-10T18:52:43.128Z,59.21
2022-08-10T18:55:24.553Z,59.02
2022-08-10T18:58:01.006Z,59.96
2022-08-10T19:00:53.917Z,62.08
2022-08-10T19:03:39.619Z,61.98
2022-08-10T19:06:45.550Z,62.22
2022-08-10T19:09:47.656Z,63.46
2022-08-10T19:12:36.989Z,67.61
2022-08-10T19:15:16.479Z,70.58
2022-08-10T19:18:14.097Z,68.51
2022-08-10T19:20:59.580Z,68.55
2022-08-10T19:23:34.804Z,70.97
2022-08-10T19:26:37.980Z,70.23
2022-08-10T19:29:10.080Z,72.33
2022-08-10T19:31:54.591Z,71.25
2022-08-10T19:34:38.982Z,75.35
2022-08-10T19:37:37.310Z,74.77
2022-08-10T19:40:16.557Z,76.47
2022-08-10T19:43:09.213Z,77.09
2022-08-10T19:46:01.275Z,79.09
2022-08-10T19:48:43.335Z,80.92
2022-08-10T19:51:30.148Z,79.14
2022-08-10T19:54:03.802Z,78.73
2022-08-10T19:56:40.109Z,79.38
2022-08-10T20:00:16.935Z,80.73
2022-08-10T20:02:26.226Z,83.02
2022-08-10T20:05:07.082Z,80.73
2022-08-10T20:07:58.582Z,80.08
2022-08-10T20:10:42.728Z,80.47
2022-08-10T20:13:25.975Z,84.38
2022-08-10T20:16:02.931Z,81.48
2022-08-10T20:18:42.542Z,81.98
2022-08-10T20:21:16.582Z,83.51
2022-08-10T20:23:56.455Z,87.04
2022-08-10T20:26:41.088Z,85.50
2022-08-10T20:29:16.390Z,84.07
2022-08-10T20:32:24.600Z,84.79
2022-08-10T20:34:58.338Z,92.26
2022-08-10T20:37:43.463Z,92.38
2022-08-10T20:40:53.883Z,88.77
2022-08-10T20:43:32.759Z,95.12
2022-08-10T20:46:28.098Z,95.77
2022-08-10T20:49:22.692Z,94.12
2022-08-10T20:51:58.990Z,94.10
2022-08-10T20:54:35.287Z,93.15
2022-08-10T20:57:55.382Z,97.78
2022-08-10T21:00:13.728Z,100.00
2022-08-10T21:03:20.878Z,96.89
2022-08-10T21:06:03.292Z,98.25
2022-08-10T21:08:46.769Z,100.00
2022-08-10T21:11:32.143Z,100.00
2022-08-10T21:14:20.770Z,100.00
2022-08-10T21:16:50.279Z,100.00
2022-08-10T21:19:56.284Z,100.00
2022-08-10T21:22:31.719Z,100.00
2022-08-10T21:25:29.741Z,100.00
2022-08-10T21:27:59.438Z,100.00
2022-08-10T21:30:47.084Z,100.00
2022-08-10T21:33:45.161Z,100.00
2022-08-10T21:36:27.230Z,100.00
2022-08-10T21:39:16.129Z,100.00
2022-08-10T21:42:43.423Z,100.00
2022-08-10T21:45:59.518Z,100.00
2022-08-10T21:48:57.709Z,100.00
2022-08-10T21:52:05.136Z,100.00
2022-08-10T21:55:10.437Z,100.00
2022-08-10T21:58:15.428Z,100.00
2022-08-10T22:01:06.812Z,100.00
2022-08-10T22:03:59.719Z,100.00
2022-08-10T22:06:52.508Z,100.00
2022-08-10T22:10:00.176Z,100.00
2022-08-10T22:12:52.580Z,100.00
2022-08-10T22:16:03.834Z,100.00
2022-08-10T22:18:58.821Z,100.00
2022-08-10T22:21:59.433Z,100.00
2022-08-10T22:25:19.122Z,100.00
2022-08-10T22:28:12.502Z,100.00
2022-08-10T22:31:30.188Z,100.00
2022-08-10T22:34:59.656Z,100.00
2022-08-10T22:37:53.849Z,100.00
2022-08-10T22:40:42.179Z,100.00
2022-08-10T22:43:38.249Z,100.00
2022-08-10T22:46:42.250Z,100.00
2022-08-10T22:49:09.559Z,100.00
2022-08-10T22:51:54.630Z,100.00
2022-08-10T22:54:42.221Z,100.00
2022-08-10T22:57:34.321Z,100.00
2022-08-10T23:00:31.451Z,100.00
2022-08-10T23:03:22.444Z,100.00
2022-08-10T23:06:04.357Z,100.00
2022-08-10T23:08:40.965Z,100.00
2022-08-10T23:11:12.711Z,100.00
2022-08-10T23:13:43.799Z,100.00
2022-08-10T23:16:36.232Z,100.00
2022-08-10T23:19:24.806Z,100.00
2022-08-10T23:22:15.860Z,100.00
2022-08-10T23:25:04.416Z,100.00
2022-08-10T23:27:38.628Z,100.00
2022-08-10T23:30:16.973Z,100.00
2022-08-10T23:32:48.021Z,100.00
2022-08-10T23:36:05.514Z,100.00
2022-08-10T23:38:09.409Z,100.00
2022-08-10T23:40:36.912Z,100.00
2022-08-10T23:43:05.575Z,100.00
2022-08-10T23:45:53.179Z,100.00
2022-08-10T23:48:23.419Z,100.00
2022-08-10T23:50:59.595Z,100.00
2022-08-10T23:53:30.887Z,100.00
2022-08-10T23:56:05.227Z,100.00
2022-08-10T23:58:36.056Z,100.00
